Time;durP1;ratioP1;P1;durP2;ratioP2;P2;SDS_P1;SDS_P2;PMS_P1;PMS_P2;Temp;Humidity;BMP_temperature;BMP_pressure;BME280_temperature;BME280_humidity;BME280_pressure;Samples;Min_cycle;Max_cycle;Signal;HPM_P1;HPM_P2
2023/12/10 00:00:23;;;;;;;48.38;26.02;;;;;;;-0.64;100.00;98456.06;4976471;28;20034;-83
2023/12/10 00:02:49;;;;;;;42.92;24.35;;;;;;;-0.82;100.00;98426.59;4958878;28;20034;-83
2023/12/10 00:05:14;;;;;;;47.85;27.23;;;;;;;-0.69;100.00;98439.97;4976373;28;20576;-83
2023/12/10 00:07:40;;;;;;;41.42;23.85;;;;;;;-1.05;100.00;98369.13;4975965;28;20030;-83
2023/12/10 00:10:05;;;;;;;38.38;22.27;;;;;;;-0.62;100.00;98423.63;4976343;28;20034;-83
2023/12/10 00:12:33;;;;;;;41.65;24.42;;;;;;;-0.57;100.00;98424.38;4976181;28;20142;-83
2023/12/10 00:14:58;;;;;;;44.25;22.92;;;;;;;-0.69;100.00;98401.63;4975946;28;20027;-83
2023/12/10 00:17:24;;;;;;;44.03;24.30;;;;;;;-0.55;100.00;98426.03;4976295;28;20051;-83
2023/12/10 00:19:49;;;;;;;39.85;21.80;;;;;;;-0.74;100.00;98385.53;4958408;28;20073;-83
2023/12/10 00:22:14;;;;;;;40.80;22.55;;;;;;;-0.67;100.00;98400.72;4975827;28;20122;-83
2023/12/10 00:24:42;;;;;;;40.75;22.67;;;;;;;-0.60;100.00;98412.47;4975648;28;20110;-83
2023/12/10 00:27:08;;;;;;;40.58;23.17;;;;;;;-0.55;100.00;98431.16;4975891;28;20436;-83
2023/12/10 00:29:33;;;;;;;47.97;26.45;;;;;;;-0.51;100.00;98431.91;4976158;28;20030;-83
2023/12/10 00:31:59;;;;;;;41.58;23.95;;;;;;;-0.74;100.00;98388.94;4975537;28;20023;-83
2023/12/10 00:34:24;;;;;;;43.42;23.48;;;;;;;-0.49;100.00;98430.16;4975715;28;20034;-83
2023/12/10 00:36:49;;;;;;;40.60;23.33;;;;;;;-0.48;100.00;98433.56;4956654;28;20077;-83
2023/12/10 00:39:15;;;;;;;42.53;23.25;;;;;;;-0.45;100.00;98438.63;4975372;28;20425;-83
2023/12/10 00:41:40;;;;;;;40.88;23.38;;;;;;;-0.76;100.00;98391.53;4975986;28;20638;-83
2023/12/10 00:44:06;;;;;;;47.67;25.40;;;;;;;-0.48;100.00;98442.06;4975619;28;20023;-83
2023/12/10 00:46:31;;;;;;;40.20;21.80;;;;;;;-0.67;100.00;98405.84;4975844;28;20035;-83
2023/12/10 00:48:56;;;;;;;39.65;22.20;;;;;;;-0.44;100.00;98445.41;4957927;28;20476;-83
2023/12/10 00:51:23;;;;;;;43.13;24.98;;;;;;;-0.60;100.00;98415.03;4974967;28;20060;-83
2023/12/10 00:53:49;;;;;;;38.45;22.27;;;;;;;-0.54;100.00;98412.38;4975156;28;20034;-83
2023/12/10 00:56:15;;;;;;;39.65;22.60;;;;;;;-0.59;100.00;98401.41;4975408;28;20030;-82
2023/12/10 00:58:41;;;;;;;41.78;23.77;;;;;;;-0.47;100.00;98427.56;4975268;28;20035;-83
2023/12/10 01:01:09;;;;;;;38.88;23.27;;;;;;;-0.65;100.00;98393.84;4974886;28;20033;-83
2023/12/10 01:03:35;;;;;;;42.50;22.55;;;;;;;-0.82;100.00;98371.19;4957735;28;20077;-83
2023/12/10 01:06:04;;;;;;;41.28;24.27;;;;;;;-0.56;100.00;98405.59;4975000;28;20109;-83
2023/12/10 01:08:30;;;;;;;39.90;24.23;;;;;;;-0.58;100.00;98405.63;4975406;28;20118;-83
2023/12/10 01:10:56;;;;;;;45.35;25.63;;;;;;;-0.56;100.00;98418.38;4975029;28;20133;-83
2023/12/10 01:13:24;;;;;;;43.97;24.98;;;;;;;-0.37;100.00;98436.72;4975001;28;20109;-83
2023/12/10 01:15:54;;;;;;;39.50;23.85;;;;;;;-0.49;100.00;98416.53;4974756;28;20118;-83
2023/12/10 01:18:20;;;;;;;40.70;24.88;;;;;;;-0.44;100.00;98414.72;4974948;28;20480;-83
2023/12/10 01:20:45;;;;;;;46.05;26.08;;;;;;;-0.42;100.00;98423.19;4974420;28;20042;-83
2023/12/10 01:23:11;;;;;;;45.65;26.30;;;;;;;-0.38;100.00;98429.91;4974733;28;20057;-83
2023/12/10 01:25:36;;;;;;;42.83;24.58;;;;;;;-0.45;100.00;98428.38;4974920;28;20033;-83
2023/12/10 01:28:02;;;;;;;41.95;25.17;;;;;;;-0.49;100.00;98416.53;4974647;28;20026;-83
2023/12/10 01:30:28;;;;;;;48.53;27.45;;;;;;;-0.35;100.00;98435.81;4941293;28;20031;-83
2023/12/10 01:32:56;;;;;;;46.15;25.95;;;;;;;-0.72;100.00;98365.88;4974351;28;20027;-83
2023/12/10 01:35:22;;;;;;;47.13;26.85;;;;;;;-0.39;100.00;98431.63;4974288;28;20026;-83
2023/12/10 01:37:47;;;;;;;43.42;25.27;;;;;;;-0.38;100.00;98422.25;4974710;28;20357;-83
2023/12/10 01:40:13;;;;;;;39.60;24.48;;;;;;;-0.47;100.00;98414.78;4957097;28;20051;-83
2023/12/10 01:42:40;;;;;;;46.85;26.40;;;;;;;-0.42;100.00;98436.84;4957085;28;20484;-83
2023/12/10 01:45:06;;;;;;;43.38;24.13;;;;;;;-0.60;100.00;98407.38;4973984;28;20039;-83
2023/12/10 01:47:34;;;;;;;46.55;26.15;;;;;;;-0.45;100.00;98420.72;4956487;28;20034;-84
2023/12/10 01:50:05;;;;;;;39.70;23.75;;;;;;;-0.51;100.00;98419.09;4974242;28;20035;-83
2023/12/10 01:52:32;;;;;;;42.63;24.03;;;;;;;-0.80;100.00;98364.34;4974160;28;20381;-83
2023/12/10 01:54:58;;;;;;;44.03;24.48;;;;;;;-0.43;100.00;98418.94;4974008;28;20113;-83
2023/12/10 01:57:27;;;;;;;40.63;22.67;;;;;;;-0.57;100.00;98381.72;4973990;28;20381;-83
2023/12/10 01:59:53;;;;;;;40.00;23.73;;;;;;;-0.38;100.00;98410.31;4973904;28;20432;-83
2023/12/10 02:02:20;;;;;;;37.35;23.23;;;;;;;-0.78;100.00;98347.25;4973924;28;20034;-83
2023/12/10 02:04:46;;;;;;;39.92;23.17;;;;;;;-0.38;100.00;98406.88;4974120;28;20033;-83
2023/12/10 02:07:11;;;;;;;43.28;24.20;;;;;;;-0.34;100.00;98403.38;4973767;28;20030;-83
2023/12/10 02:09:36;;;;;;;33.78;21.35;;;;;;;-0.74;100.00;98337.81;4973859;28;20023;-83
2023/12/10 02:12:02;;;;;;;40.40;23.42;;;;;;;-0.42;100.00;98398.47;4974002;28;20114;-83
2023/12/10 02:14:28;;;;;;;43.05;22.40;;;;;;;-0.35;100.00;98401.72;4973798;28;20038;-83
2023/12/10 02:16:54;;;;;;;38.25;21.85;;;;;;;-0.38;100.00;98389.84;4973470;28;20031;-83
2023/12/10 02:19:19;;;;;;;37.25;22.17;;;;;;;-0.42;100.00;98388.25;4973696;28;20538;-83
2023/12/10 02:21:46;;;;;;;38.58;21.13;;;;;;;-0.36;100.00;98395.75;4973834;28;20121;-83
2023/12/10 02:24:20;;;;;;;37.90;22.05;;;;;;;-0.31;100.00;98404.16;4973407;28;20117;-82
2023/12/10 02:26:45;;;;;;;33.67;20.58;;;;;;;-0.58;100.00;98353.66;4973846;28;20408;-81
2023/12/10 02:29:10;;;;;;;39.85;21.98;;;;;;;-0.58;100.00;98351.94;4973228;28;20027;-82
2023/12/10 02:31:36;;;;;;;36.80;21.35;;;;;;;-0.45;100.00;98369.56;4973733;28;20034;-81
2023/12/10 02:34:01;;;;;;;31.50;19.13;;;;;;;-0.45;100.00;98359.31;4973409;28;20031;-81
2023/12/10 02:36:27;;;;;;;33.33;20.25;;;;;;;-0.68;100.00;98319.75;4973562;28;20416;-82
2023/12/10 02:38:52;;;;;;;33.55;18.73;;;;;;;-0.44;100.00;98350.78;4955726;28;20082;-82
2023/12/10 02:41:18;;;;;;;38.05;21.20;;;;;;;-0.20;100.00;98364.72;4973236;28;20480;-82
2023/12/10 02:43:43;;;;;;;35.75;19.98;;;;;;;-0.12;100.00;98373.03;4955921;28;20484;-82
2023/12/10 02:46:08;;;;;;;31.30;18.25;;;;;;;-0.33;100.00;98331.75;4972974;28;20476;-82
2023/12/10 02:48:34;;;;;;;31.70;18.95;;;;;;;-0.36;100.00;98313.06;4973253;28;20042;-82
2023/12/10 02:50:59;;;;;;;32.80;18.92;;;;;;;-0.15;100.00;98333.00;4972868;28;20425;-82
2023/12/10 02:53:24;;;;;;;31.05;19.48;;;;;;;-0.25;100.00;98316.22;4973138;28;20484;-82
2023/12/10 02:55:51;;;;;;;33.22;19.30;;;;;;;-0.19;100.00;98318.59;4972965;28;20022;-82
2023/12/10 02:58:17;;;;;;;32.90;19.25;;;;;;;0.08;100.00;98360.56;4973447;28;20419;-82
2023/12/10 03:00:43;;;;;;;35.17;20.23;;;;;;;0.04;100.00;98353.00;4972579;28;20041;-83
2023/12/10 03:03:08;;;;;;;29.90;18.45;;;;;;;-0.11;100.00;98321.81;4973073;28;20030;-82
2023/12/10 03:05:34;;;;;;;33.35;19.30;;;;;;;-0.10;100.00;98312.41;4955683;28;20447;-82
2023/12/10 03:07:59;;;;;;;32.67;19.38;;;;;;;0.04;100.00;98328.25;4972871;28;20106;-82
2023/12/10 03:10:25;;;;;;;33.22;18.50;;;;;;;0.19;100.00;98350.91;4972974;28;20114;-82
2023/12/10 03:12:50;;;;;;;29.08;18.02;;;;;;;0.12;100.00;98326.34;4955594;28;20058;-82
2023/12/10 03:15:16;;;;;;;30.00;17.73;;;;;;;-0.03;100.00;98304.56;4972458;28;20031;-82
2023/12/10 03:17:41;;;;;;;30.92;17.67;;;;;;;0.45;100.00;98370.72;4972963;28;20031;-82
2023/12/10 03:20:09;;;;;;;29.40;16.83;;;;;;;0.22;100.00;98319.28;4972756;28;20038;-82
2023/12/10 03:22:34;;;;;;;29.52;18.05;;;;;;;0.37;100.00;98338.50;4972962;28;20027;-82
2023/12/10 03:25:00;;;;;;;34.17;19.23;;;;;;;0.37;100.00;98333.38;4972670;28;20066;-81
2023/12/10 03:27:25;;;;;;;29.38;17.60;;;;;;;0.56;100.00;98365.31;4972562;28;20058;-82
2023/12/10 03:29:50;;;;;;;27.80;18.40;;;;;;;0.31;100.00;98321.59;4972728;28;20030;-82
2023/12/10 03:32:16;;;;;;;28.35;18.63;;;;;;;0.42;100.00;98352.03;4972817;28;20456;-82
2023/12/10 03:34:41;;;;;;;30.20;17.98;;;;;;;0.57;100.00;98379.81;4972702;28;20117;-82
2023/12/10 03:37:08;;;;;;;30.10;18.05;;;;;;;0.55;100.00;98366.22;4972973;28;20037;-82
2023/12/10 03:39:33;;;;;;;31.58;18.25;;;;;;;0.32;100.00;98335.22;4973272;28;20070;-82
2023/12/10 03:41:58;;;;;;;30.27;18.02;;;;;;;0.66;100.00;98381.28;4955348;28;20106;-82
2023/12/10 03:44:24;;;;;;;29.38;19.58;;;;;;;0.57;100.00;98356.75;4955737;28;20050;-82
2023/12/10 03:46:49;;;;;;;30.45;18.35;;;;;;;0.49;100.00;98344.13;4956225;28;20035;-82
2023/12/10 03:49:14;;;;;;;28.92;19.40;;;;;;;0.71;100.00;98379.44;4972373;28;20033;-81
2023/12/10 03:51:40;;;;;;;27.55;17.48;;;;;;;0.69;100.00;98376.09;4972943;28;20661;-82
2023/12/10 03:54:05;;;;;;;28.95;18.20;;;;;;;0.42;100.00;98323.84;4973385;28;20097;-82
2023/12/10 03:56:31;;;;;;;27.23;17.60;;;;;;;0.75;100.00;98358.81;4974335;28;20059;-82
2023/12/10 03:58:56;;;;;;;28.02;17.10;;;;;;;0.82;100.00;98374.84;4973781;28;20034;-82
2023/12/10 04:01:21;;;;;;;30.70;17.98;;;;;;;0.84;100.00;98387.63;4974417;28;20464;-81
2023/12/10 04:03:47;;;;;;;32.08;19.13;;;;;;;0.75;100.00;98370.78;4974429;28;20106;-82
2023/12/10 04:06:12;;;;;;;26.83;17.48;;;;;;;0.74;100.00;98382.75;4980045;28;20030;-82
2023/12/10 04:08:38;;;;;;;27.92;17.60;;;;;;;0.65;100.00;98372.75;4963511;28;20035;-82
2023/12/10 04:11:04;;;;;;;29.73;18.17;;;;;;;0.37;100.00;98326.53;4964768;28;20026;-82
2023/12/10 04:13:29;;;;;;;26.27;17.58;;;;;;;0.80;100.00;98396.28;4983476;28;20027;-82
2023/12/10 04:15:55;;;;;;;25.05;17.75;;;;;;;0.69;100.00;98382.03;4976645;28;20058;-82
2023/12/10 04:18:20;;;;;;;26.33;17.70;;;;;;;0.61;100.00;98383.13;4959264;28;20035;-82
2023/12/10 04:20:45;;;;;;;27.10;17.38;;;;;;;0.83;100.00;98424.41;4976027;28;20447;-82
2023/12/10 04:23:11;;;;;;;25.10;15.50;;;;;;;0.60;100.00;98373.78;4975667;28;20484;-82
2023/12/10 04:25:36;;;;;;;23.45;16.05;;;;;;;0.65;100.00;98387.28;4976064;28;20041;-82
2023/12/10 04:28:03;;;;;;;23.73;15.73;;;;;;;0.81;100.00;98418.47;4975519;28;20069;-82
2023/12/10 04:30:31;;;;;;;25.00;15.98;;;;;;;0.60;100.00;98381.47;4976008;28;20062;-82
2023/12/10 04:32:56;;;;;;;22.80;15.35;;;;;;;0.72;100.00;98391.38;4975719;28;20037;-82
2023/12/10 04:35:22;;;;;;;23.77;15.13;;;;;;;0.84;100.00;98405.56;4958158;28;20392;-82
2023/12/10 04:37:47;;;;;;;23.08;14.27;;;;;;;0.83;100.00;98401.31;4975741;28;20030;-82
2023/12/10 04:40:13;;;;;;;23.38;15.43;;;;;;;0.70;100.00;98375.19;4975809;28;20054;-82
2023/12/10 04:42:39;;;;;;;20.73;15.25;;;;;;;0.79;100.00;98390.31;4958109;28;20037;-82
2023/12/10 04:45:06;;;;;;;22.15;14.65;;;;;;;0.78;100.00;98378.38;4975452;28;20034;-82
2023/12/10 04:47:32;;;;;;;21.10;14.18;;;;;;;0.91;100.00;98407.09;4975707;28;20431;-82
2023/12/10 04:49:57;;;;;;;21.42;14.70;;;;;;;0.61;100.00;98354.94;4975247;28;20035;-82
2023/12/10 04:52:23;;;;;;;20.20;14.18;;;;;;;1.02;100.00;98429.88;4975756;28;20122;-82
2023/12/10 04:54:48;;;;;;;18.13;12.70;;;;;;;0.74;100.00;98384.47;4975361;28;20449;-82
2023/12/10 04:57:14;;;;;;;20.70;14.27;;;;;;;0.75;100.00;98388.72;4974877;28;20047;-82
2023/12/10 04:59:39;;;;;;;21.77;14.63;;;;;;;0.92;100.00;98429.28;4975268;28;20086;-82
2023/12/10 05:02:04;;;;;;;22.33;14.13;;;;;;;0.81;100.00;98405.66;4957823;28;20114;-81
2023/12/10 05:04:30;;;;;;;21.83;13.90;;;;;;;0.98;100.00;98441.94;4975129;28;20491;-81
2023/12/10 05:06:55;;;;;;;22.80;14.75;;;;;;;0.64;100.00;98386.47;4957939;28;20037;-81
2023/12/10 05:09:20;;;;;;;21.40;14.38;;;;;;;0.99;100.00;98441.88;4974691;28;20054;-81
2023/12/10 05:11:46;;;;;;;21.90;15.13;;;;;;;0.89;100.00;98412.25;4974887;28;20027;-82
2023/12/10 05:14:11;;;;;;;20.65;14.23;;;;;;;0.89;100.00;98424.25;4974994;28;20027;-82
2023/12/10 05:16:37;;;;;;;20.77;14.60;;;;;;;1.14;100.00;98460.31;4975177;28;20461;-82
2023/12/10 05:19:02;;;;;;;23.85;16.70;;;;;;;1.04;100.00;98433.22;4957402;28;20045;-82
2023/12/10 05:21:27;;;;;;;21.27;14.57;;;;;;;0.93;100.00;98420.72;4957393;28;20081;-82
2023/12/10 05:23:53;;;;;;;26.40;16.45;;;;;;;0.82;100.00;98430.41;4974118;28;20034;-82
2023/12/10 05:26:18;;;;;;;25.90;16.13;;;;;;;0.82;100.00;98426.13;4957098;28;20030;-82
2023/12/10 05:28:44;;;;;;;23.38;15.55;;;;;;;1.02;100.00;98445.25;4974962;28;20453;-82
2023/12/10 05:31:10;;;;;;;23.15;14.75;;;;;;;0.88;100.00;98432.78;4974400;28;20038;-81
2023/12/10 05:33:35;;;;;;;23.85;15.75;;;;;;;0.76;100.00;98428.88;4974811;28;20075;-82
2023/12/10 05:36:02;;;;;;;22.98;15.00;;;;;;;0.80;100.00;98448.41;4974399;28;20162;-82
2023/12/10 05:38:27;;;;;;;24.50;16.13;;;;;;;0.92;100.00;98460.88;4974409;28;20023;-82
2023/12/10 05:40:52;;;;;;;21.13;13.90;;;;;;;0.74;100.00;98438.28;4974449;28;20038;-82
2023/12/10 05:43:18;;;;;;;24.08;15.65;;;;;;;0.67;100.00;98426.50;4974010;28;20033;-81
2023/12/10 05:45:43;;;;;;;21.38;14.52;;;;;;;0.70;100.00;98437.53;4957242;28;20038;-82
2023/12/10 05:48:08;;;;;;;24.95;14.77;;;;;;;0.93;100.00;98475.38;4956942;28;20499;-82
2023/12/10 05:50:34;;;;;;;22.77;14.85;;;;;;;1.03;100.00;98490.53;4974391;28;20046;-81
2023/12/10 05:52:59;;;;;;;23.42;14.93;;;;;;;0.72;100.00;98447.75;4974206;28;20062;-82
2023/12/10 05:55:24;;;;;;;20.92;14.25;;;;;;;1.02;100.00;98484.56;4956399;28;20081;-82
2023/12/10 05:57:50;;;;;;;21.67;14.43;;;;;;;1.07;100.00;98487.00;4974178;28;20027;-82
2023/12/10 06:00:16;;;;;;;19.90;12.93;;;;;;;0.76;100.00;98441.69;4974080;28;20163;-82
2023/12/10 06:02:41;;;;;;;19.00;13.38;;;;;;;1.00;100.00;98481.19;4974348;28;20031;-82
2023/12/10 06:05:07;;;;;;;18.98;12.85;;;;;;;0.49;100.00;98410.75;4973855;28;20033;-82
2023/12/10 06:07:32;;;;;;;19.30;13.23;;;;;;;0.78;100.00;98472.38;4974466;28;20031;-82
2023/12/10 06:09:57;;;;;;;21.50;13.90;;;;;;;0.77;100.00;98461.28;4973964;28;20086;-82
2023/12/10 06:12:23;;;;;;;16.85;11.85;;;;;;;0.93;100.00;98489.94;4956096;28;20034;-82
2023/12/10 06:14:48;;;;;;;18.80;13.38;;;;;;;1.02;100.00;98515.31;4974265;28;20031;-82
2023/12/10 06:17:14;;;;;;;20.88;14.13;;;;;;;1.04;100.00;98510.97;4973507;28;20081;-81
2023/12/10 06:19:39;;;;;;;18.20;12.45;;;;;;;1.04;100.00;98513.53;4974077;28;20037;-82
2023/12/10 06:22:04;;;;;;;16.65;11.45;;;;;;;1.08;100.00;98525.41;4973562;28;20405;-83
2023/12/10 06:24:30;;;;;;;18.55;12.32;;;;;;;0.98;100.00;98501.75;4973622;28;20035;-82
2023/12/10 06:26:55;;;;;;;17.95;12.20;;;;;;;0.88;100.00;98494.31;4973715;28;20063;-81
2023/12/10 06:29:22;;;;;;;22.40;12.80;;;;;;;1.03;100.00;98531.53;4973384;28;20026;-82
2023/12/10 06:31:47;;;;;;;21.10;13.27;;;;;;;0.95;100.00;98527.44;4973744;28;20158;-82
2023/12/10 06:34:13;;;;;;;19.13;12.85;;;;;;;0.80;100.00;98503.91;4973312;28;20129;-82
2023/12/10 06:36:38;;;;;;;18.00;12.45;;;;;;;0.97;100.00;98528.28;4973444;28;20023;-82
2023/12/10 06:39:04;;;;;;;21.63;13.48;;;;;;;0.93;100.00;98525.81;4973328;28;20459;-81
2023/12/10 06:41:29;;;;;;;28.98;16.27;;;;;;;0.82;100.00;98512.44;4973275;28;20054;-82
2023/12/10 06:43:54;;;;;;;26.52;15.85;;;;;;;0.86;100.00;98524.28;4973496;28;20071;-81
2023/12/10 06:46:20;;;;;;;26.05;15.40;;;;;;;0.98;100.00;98547.88;4973052;28;20034;-82
2023/12/10 06:48:45;;;;;;;19.40;13.63;;;;;;;1.09;100.00;98559.56;4955853;28;20039;-82
2023/12/10 06:51:11;;;;;;;22.30;14.85;;;;;;;1.08;100.00;98569.00;4972919;28;20476;-82
2023/12/10 06:53:36;;;;;;;21.77;14.05;;;;;;;0.86;100.00;98524.28;4973240;28;20034;-82
2023/12/10 06:56:02;;;;;;;20.60;13.98;;;;;;;0.90;100.00;98542.13;4973054;28;20055;-82
2023/12/10 06:58:27;;;;;;;20.17;13.63;;;;;;;1.07;100.00;98574.19;4973240;28;20023;-82
2023/12/10 07:00:53;;;;;;;21.23;13.70;;;;;;;1.16;100.00;98579.06;4973172;28;20476;-81
2023/12/10 07:03:19;;;;;;;18.60;13.52;;;;;;;0.84;100.00;98533.72;4972820;28;20035;-81
2023/12/10 07:05:44;;;;;;;21.42;15.27;;;;;;;1.06;100.00;98570.78;4973139;28;20026;-81
2023/12/10 07:08:09;;;;;;;21.38;14.00;;;;;;;1.13;100.00;98576.56;4972821;28;20070;-81
2023/12/10 07:10:35;;;;;;;25.13;17.17;;;;;;;1.10;100.00;98584.38;4972922;28;20034;-81
2023/12/10 07:13:00;;;;;;;28.95;18.42;;;;;;;1.11;100.00;98580.91;4955736;28;20033;-81
2023/12/10 07:15:26;;;;;;;26.08;18.92;;;;;;;1.12;100.00;98582.59;4972660;28;20451;-81
2023/12/10 07:17:51;;;;;;;20.65;15.45;;;;;;;0.95;100.00;98553.09;4973272;28;20034;-81
2023/12/10 07:20:16;;;;;;;21.10;15.35;;;;;;;0.94;100.00;98548.84;4955597;28;20042;-81
2023/12/10 07:22:42;;;;;;;19.40;13.63;;;;;;;1.17;100.00;98571.31;4973049;28;20034;-81
2023/12/10 07:25:08;;;;;;;21.98;15.85;;;;;;;1.17;100.00;98583.31;4972452;28;20026;-81
2023/12/10 07:27:33;;;;;;;22.17;15.15;;;;;;;1.12;100.00;98592.84;4973439;28;20369;-81
2023/12/10 07:29:59;;;;;;;21.73;14.93;;;;;;;1.08;100.00;98592.06;4972960;28;20054;-81
2023/12/10 07:32:25;;;;;;;22.65;14.68;;;;;;;1.23;100.00;98612.22;4972709;28;20030;-81
2023/12/10 07:34:50;;;;;;;24.00;16.02;;;;;;;1.27;100.00;98607.03;4973676;28;20031;-81
2023/12/10 07:37:16;;;;;;;30.15;23.52;;;;;;;1.16;100.00;98591.88;4972883;28;20030;-81
2023/12/10 07:39:41;;;;;;;48.83;35.58;;;;;;;0.94;100.00;98560.81;4973050;28;20054;-82
2023/12/10 07:42:07;;;;;;;32.03;24.98;;;;;;;1.07;100.00;98579.31;4973617;28;20086;-82
2023/12/10 07:44:33;;;;;;;25.75;18.08;;;;;;;1.23;100.00;98609.66;4972863;28;20058;-82
2023/12/10 07:46:58;;;;;;;23.88;16.40;;;;;;;0.89;100.00;98560.09;4934121;29;20040;-82
2023/12/10 07:49:24;;;;;;;36.60;25.48;;;;;;;0.99;100.00;98579.50;4935453;29;20087;-82
2023/12/10 07:51:49;;;;;;;31.27;20.92;;;;;;;1.18;100.00;98613.19;4936095;29;20071;-81
2023/12/10 07:54:14;;;;;;;29.40;19.60;;;;;;;0.81;100.00;98550.03;4936095;29;20126;-81
2023/12/10 07:56:40;;;;;;;24.75;17.30;;;;;;;0.96;100.00;98577.84;4920270;29;20035;-81
2023/12/10 07:59:05;;;;;;;38.95;24.08;;;;;;;1.13;100.00;98602.22;4936324;29;20036;-81
2023/12/10 08:01:31;;;;;;;36.60;22.60;;;;;;;1.24;100.00;98611.31;4935704;29;20047;-82
2023/12/10 08:03:56;;;;;;;52.33;30.58;;;;;;;1.22;100.00;98625.94;4935609;29;20416;-82
2023/12/10 08:06:21;;;;;;;61.50;35.47;;;;;;;1.20;100.00;98630.25;4919593;29;20083;-82
2023/12/10 08:08:50;;;;;;;99.32;55.35;;;;;;;1.24;100.00;98644.66;4925569;29;20027;-79
2023/12/10 08:11:16;;;;;;;74.70;41.15;;;;;;;0.97;100.00;98605.19;4926363;29;20560;-83
2023/12/10 08:13:41;;;;;;;63.72;38.72;;;;;;;1.14;100.00;98629.56;4935893;29;20036;-82
2023/12/10 08:16:08;;;;;;;69.35;44.20;;;;;;;1.24;100.00;98636.13;4938503;29;20051;-82
2023/12/10 08:18:33;;;;;;;33.35;21.17;;;;;;;1.15;100.00;98624.38;4953439;28;20047;-82
2023/12/10 08:21:01;;;;;;;29.48;19.27;;;;;;;1.29;100.00;98633.44;4976135;28;20395;-82
2023/12/10 08:23:26;;;;;;;31.75;18.95;;;;;;;1.30;100.00;98632.56;4975498;28;20050;-83
2023/12/10 08:25:51;;;;;;;24.42;17.23;;;;;;;1.35;100.00;98641.84;4975931;28;20101;-82
2023/12/10 08:28:17;;;;;;;32.80;20.20;;;;;;;1.44;100.00;98640.78;4975926;28;20057;-82
2023/12/10 08:30:42;;;;;;;22.80;15.05;;;;;;;1.18;100.00;98603.81;4976335;28;20033;-82
2023/12/10 08:33:07;;;;;;;54.75;26.35;;;;;;;1.27;100.00;98635.22;4976383;28;20038;-82
2023/12/10 08:35:33;;;;;;;30.83;17.92;;;;;;;1.21;100.00;98618.25;4976084;28;20027;-83
2023/12/10 08:37:58;;;;;;;22.23;14.40;;;;;;;1.48;100.00;98653.47;4976123;28;20031;-82
2023/12/10 08:40:24;;;;;;;20.88;15.38;;;;;;;1.28;100.00;98604.41;4941752;28;20043;-82
2023/12/10 08:42:49;;;;;;;22.50;15.43;;;;;;;1.47;100.00;98650.94;4976035;28;20027;-83
2023/12/10 08:45:15;;;;;;;22.17;14.48;;;;;;;1.37;100.00;98657.19;4975477;28;20034;-82
2023/12/10 08:47:40;;;;;;;22.20;14.65;;;;;;;1.37;100.00;98642.63;4958451;28;20019;-82
2023/12/10 08:50:06;;;;;;;26.48;17.45;;;;;;;1.50;100.00;98654.25;4958517;28;20534;-82
2023/12/10 08:52:31;;;;;;;24.25;15.60;;;;;;;1.53;100.00;98661.06;4957546;28;20047;-82
2023/12/10 08:54:57;;;;;;;24.95;16.92;;;;;;;1.46;100.00;98646.69;4958106;28;20069;-82
2023/12/10 08:57:23;;;;;;;23.90;16.55;;;;;;;1.36;100.00;98635.00;4973875;28;20118;-82
2023/12/10 08:59:49;;;;;;;26.83;17.42;;;;;;;1.21;100.00;98621.66;4975371;28;20097;-82
2023/12/10 09:02:14;;;;;;;22.23;15.50;;;;;;;1.32;100.00;98649.63;4975119;28;20034;-82
2023/12/10 09:04:40;;;;;;;24.50;15.90;;;;;;;1.29;100.00;98648.84;4975395;28;20066;-82
2023/12/10 09:07:05;;;;;;;25.05;16.65;;;;;;;1.33;100.00;98651.28;4975177;28;20046;-82
2023/12/10 09:09:32;;;;;;;25.15;16.33;;;;;;;1.14;100.00;98625.28;4957534;28;20701;-83
2023/12/10 09:11:58;;;;;;;21.35;15.77;;;;;;;0.98;100.00;98601.72;4957819;28;20034;-82
2023/12/10 09:14:30;;;;;;;25.42;15.63;;;;;;;1.45;100.00;98673.25;4973406;28;20026;-91
2023/12/10 09:16:57;;;;;;;25.30;17.50;;;;;;;1.46;100.00;98665.50;4941701;28;20042;-90
2023/12/10 09:19:25;;;;;;;25.63;16.77;;;;;;;1.38;100.00;98661.44;4916364;29;20032;-85
2023/12/10 09:21:50;;;;;;;22.55;16.20;;;;;;;1.45;100.00;98647.56;4914601;29;20040;-84
2023/12/10 09:24:16;;;;;;;26.80;17.35;;;;;;;1.40;100.00;98652.00;4898833;29;20040;-83
2023/12/10 09:26:41;;;;;;;21.50;15.63;;;;;;;1.22;100.00;98619.94;4899087;29;20040;-84
2023/12/10 09:29:06;;;;;;;23.23;15.93;;;;;;;1.41;100.00;98664.78;4914717;29;20047;-83
2023/12/10 09:31:32;;;;;;;25.08;16.75;;;;;;;1.43;100.00;98668.16;4914576;29;20040;-83
2023/12/10 09:33:57;;;;;;;25.38;16.40;;;;;;;1.48;100.00;98662.91;4914411;29;20179;-84
2023/12/10 09:36:23;;;;;;;24.17;16.95;;;;;;;1.22;100.00;98632.75;4898593;29;20471;-85
2023/12/10 09:38:48;;;;;;;23.60;16.80;;;;;;;1.54;100.00;98669.59;4914541;29;20483;-84
2023/12/10 09:41:13;;;;;;;25.05;16.50;;;;;;;1.52;100.00;98649.13;4898478;29;20058;-84
2023/12/10 09:43:39;;;;;;;27.85;18.73;;;;;;;1.31;100.00;98622.28;4914391;29;20039;-84
2023/12/10 09:46:08;;;;;;;32.20;19.70;;;;;;;1.60;100.00;98665.16;4914724;29;20043;-85
2023/12/10 09:48:33;;;;;;;26.67;18.52;;;;;;;1.42;100.00;98629.69;4933835;29;20122;-84
2023/12/10 09:50:59;;;;;;;27.80;19.67;;;;;;;1.67;100.00;98670.94;4964196;28;20536;-84
2023/12/10 09:53:24;;;;;;;26.50;17.70;;;;;;;1.67;100.00;98668.38;4956544;28;20455;-83
2023/12/10 09:56:09;;;;;;;27.42;18.33;;;;;;;1.37;100.00;98626.41;4974528;28;20030;-82
2023/12/10 09:58:36;;;;;;;27.67;18.60;;;;;;;1.67;100.00;98666.66;4952147;29;20049;-84
2023/12/10 10:01:06;;;;;;;26.08;17.83;;;;;;;1.62;100.00;98657.41;4936314;29;20416;-84
2023/12/10 10:03:35;;;;;;;31.52;20.40;;;;;;;1.55;100.00;98645.59;4936065;29;20520;-84
2023/12/10 10:06:02;;;;;;;39.83;24.45;;;;;;;1.75;100.00;98675.00;4952312;29;20070;-84
2023/12/10 10:08:36;;;;;;;34.40;22.92;;;;;;;1.74;100.00;98669.91;4951725;28;20047;-84
2023/12/10 10:11:02;;;;;;;31.08;20.35;;;;;;;1.62;100.00;98655.69;4936240;29;20382;-84
2023/12/10 10:13:27;;;;;;;33.25;22.80;;;;;;;1.78;100.00;98670.69;4951835;29;20070;-84
2023/12/10 10:16:13;;;;;;;37.47;25.73;;;;;;;1.90;100.00;98689.16;4913969;29;20032;-84
2023/12/10 10:18:43;;;;;;;33.70;24.00;;;;;;;1.95;100.00;98683.91;4913774;29;20052;-84
2023/12/10 10:21:10;;;;;;;37.80;25.15;;;;;;;1.91;100.00;98674.59;4913700;29;20040;-84
2023/12/10 10:23:38;;;;;;;35.17;25.65;;;;;;;1.84;100.00;98660.22;4897993;29;20048;-84
2023/12/10 10:26:03;;;;;;;41.15;30.70;;;;;;;2.06;100.00;98697.28;4914456;29;20513;-84
2023/12/10 10:28:30;;;;;;;42.38;31.50;;;;;;;2.03;100.00;98694.81;4914704;29;20047;-84
2023/12/10 10:30:59;;;;;;;55.15;40.78;;;;;;;1.90;100.00;98668.63;4933218;29;20036;-83
2023/12/10 10:33:27;;;;;;;46.78;37.65;;;;;;;2.01;100.00;98676.03;4934164;29;20072;-83
2023/12/10 10:35:53;;;;;;;54.28;40.92;;;;;;;2.06;100.00;98693.88;4939685;29;20039;-84
2023/12/10 10:38:20;;;;;;;51.05;39.05;;;;;;;2.01;100.00;98691.44;4934064;29;20076;-84
2023/12/10 10:40:48;;;;;;;41.75;30.73;;;;;;;1.99;100.00;98691.47;4933788;29;20083;-83
2023/12/10 10:43:15;;;;;;;37.30;25.33;;;;;;;1.99;100.00;98708.63;4917948;29;20039;-83
2023/12/10 10:45:45;;;;;;;47.33;27.70;;;;;;;1.65;100.00;98644.50;4927098;29;20182;-84
2023/12/10 10:48:12;;;;;;;66.33;38.53;;;;;;;2.09;100.00;98717.75;4942831;29;20039;-84
2023/12/10 10:50:42;;;;;;;78.15;44.78;;;;;;;2.15;100.00;98721.88;4946345;29;20075;-84
2023/12/10 10:53:09;;;;;;;69.30;39.95;;;;;;;2.05;100.00;98712.72;4939763;29;20040;-84
2023/12/10 10:55:36;;;;;;;59.45;35.65;;;;;;;2.14;100.00;98713.31;4917927;29;20137;-84
2023/12/10 10:58:28;;;;;;;65.57;38.33;;;;;;;2.18;100.00;98717.50;4935817;29;20122;-84
2023/12/10 11:00:57;;;;;;;49.28;29.35;;;;;;;2.31;100.00;98728.25;4930832;29;20028;-84
2023/12/10 11:03:29;;;;;;;41.22;26.15;;;;;;;2.22;100.00;98700.25;4931752;29;20047;-83
2023/12/10 11:05:57;;;;;;;41.03;26.90;;;;;;;2.37;100.00;98707.56;4932236;29;20042;-84
2023/12/10 11:08:25;;;;;;;48.03;28.83;;;;;;;2.39;100.00;98723.75;4932071;29;20164;-84